createdAt,value
2018-05-11T00:00:46.961Z,99.90
2018-05-11T00:03:14.418Z,99.90
2018-05-11T00:05:41.892Z,99.90
2018-05-11T00:08:09.330Z,99.90
2018-05-11T00:10:36.783Z,99.90
2018-05-11T00:13:04.246Z,99.90
2018-05-11T00:15:31.742Z,99.90
2018-05-11T00:17:59.190Z,99.90
2018-05-11T00:20:26.631Z,99.90
2018-05-11T00:22:54.078Z,99.90
2018-05-11T00:25:21.539Z,99.90
2018-05-11T00:27:49.002Z,99.90
2018-05-11T00:30:16.448Z,99.90
2018-05-11T00:32:43.889Z,99.90
2018-05-11T00:35:11.330Z,99.90
2018-05-11T00:37:38.887Z,99.90
2018-05-11T00:40:06.350Z,99.90
2018-05-11T00:42:33.826Z,99.90
2018-05-11T00:45:01.283Z,99.90
2018-05-11T00:47:28.718Z,99.90
2018-05-11T00:49:56.164Z,99.90
2018-05-11T00:52:23.602Z,99.90
2018-05-11T00:54:51.810Z,99.90
2018-05-11T00:57:19.243Z,99.90
2018-05-11T00:59:46.710Z,99.90
2018-05-11T01:02:14.142Z,99.90
2018-05-11T01:04:41.594Z,99.90
2018-05-11T01:07:09.054Z,99.90
2018-05-11T01:09:36.510Z,99.90
2018-05-11T01:12:03.950Z,99.90
2018-05-11T01:14:31.390Z,99.90
2018-05-11T01:16:58.878Z,99.90
2018-05-11T01:19:26.306Z,99.90
2018-05-11T01:21:53.764Z,99.90
2018-05-11T01:24:21.186Z,99.90
2018-05-11T01:26:48.645Z,99.90
2018-05-11T01:29:16.099Z,99.90
2018-05-11T01:31:43.558Z,99.90
2018-05-11T01:34:11.010Z,99.90
2018-05-11T01:36:38.453Z,99.90
2018-05-11T01:39:05.918Z,99.90
2018-05-11T01:41:33.355Z,99.90
2018-05-11T01:44:00.810Z,99.90
2018-05-11T01:46:28.250Z,99.90
2018-05-11T01:48:55.782Z,99.90
2018-05-11T01:51:23.176Z,99.90
2018-05-11T01:53:50.597Z,99.90
2018-05-11T01:56:18.034Z,99.90
2018-05-11T01:58:45.489Z,99.90
2018-05-11T02:01:12.927Z,99.90
2018-05-11T02:03:41.132Z,99.90
2018-05-11T02:06:08.577Z,99.90
2018-05-11T02:08:36.026Z,99.90
2018-05-11T02:11:03.483Z,99.90
2018-05-11T02:13:30.916Z,99.90
2018-05-11T02:15:58.361Z,99.90
2018-05-11T02:18:25.806Z,99.90
2018-05-11T02:20:53.274Z,99.90
2018-05-11T02:23:20.721Z,99.90
2018-05-11T02:25:48.197Z,99.90
2018-05-11T02:28:15.678Z,99.90
2018-05-11T02:30:43.125Z,99.90
2018-05-11T02:33:10.550Z,99.90
2018-05-11T02:35:38.027Z,99.90
2018-05-11T02:38:05.456Z,99.90
2018-05-11T02:40:32.898Z,99.90
2018-05-11T02:43:00.338Z,99.90
2018-05-11T02:45:27.808Z,99.90
2018-05-11T02:47:55.277Z,99.90
2018-05-11T02:50:22.706Z,99.90
2018-05-11T02:52:50.150Z,99.90
2018-05-11T02:55:17.700Z,99.90
2018-05-11T02:57:45.911Z,99.90
2018-05-11T03:00:13.369Z,99.90
2018-05-11T03:02:40.812Z,99.90
2018-05-11T03:05:08.247Z,99.90
2018-05-11T03:07:35.682Z,99.90
2018-05-11T03:10:03.126Z,99.90
2018-05-11T03:12:30.570Z,99.90
2018-05-11T03:14:58.010Z,99.90
2018-05-11T03:17:25.450Z,99.90
2018-05-11T03:19:52.906Z,99.90
2018-05-11T03:22:20.360Z,99.90
2018-05-11T03:24:47.795Z,99.90
2018-05-11T03:27:15.238Z,99.90
2018-05-11T03:29:42.667Z,99.90
2018-05-11T03:32:10.119Z,99.90
2018-05-11T03:34:37.650Z,99.90
2018-05-11T03:37:05.093Z,99.90
2018-05-11T03:39:32.548Z,99.90
2018-05-11T03:41:59.973Z,99.90
2018-05-11T03:44:27.406Z,99.90
2018-05-11T03:46:54.859Z,99.90
2018-05-11T03:49:22.290Z,99.90
2018-05-11T03:51:49.750Z,99.90
2018-05-11T03:54:17.174Z,99.90
2018-05-11T03:56:45.378Z,99.90
2018-05-11T03:59:12.816Z,99.90
2018-05-11T04:01:51.984Z,99.90
2018-05-11T04:04:31.198Z,99.90
2018-05-11T04:07:10.381Z,99.90
2018-05-11T04:09:37.813Z,99.90
2018-05-11T04:12:05.264Z,99.90
2018-05-11T04:14:32.698Z,99.90
2018-05-11T04:17:00.362Z,99.90
2018-05-11T04:19:27.807Z,99.90
2018-05-11T04:21:55.247Z,99.90
2018-05-11T04:24:22.690Z,99.90
2018-05-11T04:26:50.121Z,99.90
2018-05-11T04:29:17.567Z,99.90
2018-05-11T04:31:44.994Z,99.90
2018-05-11T04:34:12.450Z,99.90
2018-05-11T04:36:39.882Z,99.90
2018-05-11T04:39:07.483Z,99.90
2018-05-11T04:41:34.949Z,99.90
2018-05-11T04:44:02.390Z,99.90
2018-05-11T04:46:29.834Z,99.90
2018-05-11T04:48:57.262Z,99.90
2018-05-11T04:51:24.706Z,99.90
2018-05-11T04:53:52.142Z,99.90
2018-05-11T04:56:19.582Z,99.90
2018-05-11T04:58:47.014Z,99.90
2018-05-11T05:01:15.247Z,99.90
2018-05-11T05:03:42.658Z,99.90
2018-05-11T05:06:10.080Z,99.90
2018-05-11T05:08:37.517Z,99.90
2018-05-11T05:11:04.957Z,99.90
2018-05-11T05:13:32.398Z,99.90
2018-05-11T05:15:59.829Z,99.90
2018-05-11T05:18:28.026Z,99.90
2018-05-11T05:20:55.443Z,99.90
2018-05-11T05:23:22.941Z,99.90
2018-05-11T05:25:50.359Z,99.90
2018-05-11T05:28:18.566Z,99.90
2018-05-11T05:30:46.010Z,99.90
2018-05-11T05:33:13.544Z,99.90
2018-05-11T05:35:40.871Z,99.90
2018-05-11T05:38:08.331Z,99.90
2018-05-11T05:40:35.768Z,99.90
2018-05-11T05:43:03.190Z,99.90
2018-05-11T05:45:30.630Z,99.90
2018-05-11T05:47:58.057Z,99.90
2018-05-11T05:50:25.485Z,99.90
2018-05-11T05:52:52.928Z,99.90
2018-05-11T05:55:21.114Z,99.90
2018-05-11T05:57:48.553Z,99.90
2018-05-11T06:28:52.032Z,99.90
2018-05-11T06:31:19.462Z,99.90
2018-05-11T06:33:46.922Z,99.90
2018-05-11T06:36:14.393Z,99.90
2018-05-11T06:38:41.835Z,99.90
2018-05-11T06:41:09.298Z,99.90
2018-05-11T06:43:36.757Z,99.90
2018-05-11T06:46:04.296Z,99.90
2018-05-11T06:48:31.667Z,99.90
2018-05-11T06:50:59.114Z,99.90
2018-05-11T06:53:26.564Z,99.90
2018-05-11T06:55:54.096Z,99.90
2018-05-11T06:58:21.486Z,99.10
2018-05-11T07:00:48.933Z,98.60
2018-05-11T07:03:16.392Z,98.30
2018-05-11T07:05:44.170Z,97.30
2018-05-11T07:08:11.710Z,97.10
2018-05-11T07:10:39.167Z,97.10
2018-05-11T07:13:06.616Z,96.30
2018-05-11T07:15:34.068Z,96.50
2018-05-11T07:18:01.539Z,95.30
2018-05-11T07:20:28.982Z,95.00
2018-05-11T07:22:56.411Z,94.40
2018-05-11T07:25:23.867Z,95.40
2018-05-11T07:27:51.325Z,95.10
2018-05-11T07:30:18.806Z,95.80
2018-05-11T07:32:46.252Z,94.20
2018-05-11T07:35:14.582Z,94.60
2018-05-11T07:37:42.016Z,94.10
2018-05-11T07:40:09.472Z,94.10
2018-05-11T07:42:36.922Z,93.70
2018-05-11T07:45:04.384Z,93.30
2018-05-11T07:47:31.826Z,94.20
2018-05-11T07:49:59.298Z,93.20
2018-05-11T07:52:26.847Z,93.50
2018-05-11T07:54:54.299Z,92.50
2018-05-11T07:57:21.755Z,92.80
2018-05-11T07:59:49.214Z,91.80
2018-05-11T08:02:16.690Z,91.90
2018-05-11T08:04:44.144Z,92.80
2018-05-11T08:07:13.450Z,92.40
2018-05-11T08:09:41.478Z,92.90
2018-05-11T08:12:08.919Z,93.80
2018-05-11T08:14:36.481Z,93.10
2018-05-11T08:17:03.843Z,92.80
2018-05-11T08:19:31.277Z,91.00
2018-05-11T08:21:58.731Z,91.40
2018-05-11T08:24:26.173Z,91.90
2018-05-11T08:26:53.650Z,91.30
2018-05-11T08:29:21.083Z,91.00
2018-05-11T08:31:48.584Z,90.50
2018-05-11T08:34:16.036Z,90.00
2018-05-11T08:36:43.527Z,90.70
2018-05-11T08:39:10.971Z,89.60
2018-05-11T08:41:38.437Z,87.30
2018-05-11T08:44:05.886Z,85.60
2018-05-11T08:46:34.151Z,82.30
2018-05-11T08:49:02.358Z,81.40
2018-05-11T08:51:29.822Z,81.20
2018-05-11T08:53:57.271Z,83.60
2018-05-11T08:56:24.758Z,83.00
2018-05-11T08:58:52.200Z,82.20
2018-05-11T09:01:19.656Z,83.00
2018-05-11T09:03:47.101Z,85.10
2018-05-11T09:06:14.545Z,85.80
2018-05-11T09:08:41.995Z,87.40
2018-05-11T09:11:09.458Z,85.70
2018-05-11T09:13:36.917Z,83.00
2018-05-11T09:16:04.382Z,80.00
2018-05-11T09:18:31.847Z,79.90
2018-05-11T09:20:59.294Z,80.40
2018-05-11T09:23:26.775Z,79.70
2018-05-11T09:25:54.239Z,78.80
2018-05-11T09:28:21.683Z,81.50
2018-05-11T09:30:49.161Z,81.20
2018-05-11T09:33:17.531Z,82.40
2018-05-11T09:35:44.998Z,82.80
2018-05-11T09:38:12.442Z,83.60
2018-05-11T09:40:39.898Z,83.10
2018-05-11T09:43:07.344Z,85.90
2018-05-11T09:45:34.819Z,83.80
2018-05-11T09:48:02.305Z,85.40
2018-05-11T09:50:29.738Z,83.60
2018-05-11T09:52:57.178Z,82.60
2018-05-11T09:55:24.622Z,82.40
2018-05-11T09:57:52.069Z,80.50
2018-05-11T10:00:28.094Z,79.20
2018-05-11T10:02:55.550Z,80.30
2018-05-11T10:05:23.034Z,79.60
2018-05-11T10:07:50.582Z,80.80
2018-05-11T10:10:17.965Z,82.30
2018-05-11T10:12:45.419Z,81.20
2018-05-11T10:15:12.881Z,79.60
2018-05-11T10:17:40.321Z,79.40
2018-05-11T10:20:07.765Z,80.40
2018-05-11T10:22:35.248Z,79.40
2018-05-11T10:25:02.708Z,79.60
2018-05-11T10:27:30.162Z,80.20
2018-05-11T10:29:57.603Z,79.50
2018-05-11T10:32:25.043Z,79.40
2018-05-11T10:34:52.503Z,79.60
2018-05-11T10:37:19.945Z,80.80
2018-05-11T10:39:47.514Z,79.20
2018-05-11T10:42:14.838Z,80.10
2018-05-11T10:44:42.310Z,81.50
2018-05-11T10:47:09.798Z,79.80
2018-05-11T10:49:38.224Z,79.60
2018-05-11T10:52:05.659Z,79.50
2018-05-11T10:54:33.118Z,78.20
2018-05-11T10:57:00.599Z,78.50
2018-05-11T10:59:28.053Z,77.20
2018-05-11T11:01:55.532Z,76.90
2018-05-11T11:04:23.009Z,74.90
2018-05-11T11:06:50.466Z,73.00
2018-05-11T11:09:17.923Z,66.60
2018-05-11T11:11:45.440Z,61.60
2018-05-11T11:14:12.901Z,56.70
2018-05-11T11:16:40.363Z,54.20
2018-05-11T11:19:07.806Z,52.10
2018-05-11T11:21:35.277Z,51.70
2018-05-11T11:24:02.726Z,53.50
2018-05-11T11:26:30.384Z,47.40
2018-05-11T11:28:57.850Z,44.70
2018-05-11T11:31:25.319Z,43.20
2018-05-11T11:33:52.961Z,43.60
2018-05-11T11:36:20.522Z,42.10
2018-05-11T11:38:47.972Z,39.90
2018-05-11T11:41:15.548Z,37.30
2018-05-11T11:43:43.010Z,37.10
2018-05-11T11:46:10.527Z,36.60
2018-05-11T11:48:37.976Z,35.40
2018-05-11T11:51:06.217Z,32.70
2018-05-11T11:53:33.718Z,32.60
2018-05-11T11:56:01.178Z,31.30
2018-05-11T11:58:28.700Z,28.40
2018-05-11T12:00:56.355Z,29.00
2018-05-11T12:03:23.956Z,27.40
2018-05-11T12:05:51.447Z,27.70
2018-05-11T12:08:19.023Z,26.10
2018-05-11T12:10:46.652Z,26.30
2018-05-11T12:13:14.086Z,25.80
2018-05-11T12:15:42.338Z,25.40
2018-05-11T12:18:09.796Z,25.30
2018-05-11T12:20:37.408Z,25.70
2018-05-11T12:23:04.892Z,25.40
2018-05-11T12:25:32.384Z,26.70
2018-05-11T12:28:01.391Z,25.10
2018-05-11T12:30:28.968Z,24.50
2018-05-11T12:32:56.404Z,24.30
2018-05-11T12:35:23.854Z,23.90
2018-05-11T12:37:51.300Z,24.20
2018-05-11T12:40:18.758Z,23.90
2018-05-11T12:42:46.216Z,23.90
2018-05-11T12:45:13.691Z,23.70
2018-05-11T12:47:41.141Z,24.00
2018-05-11T12:50:08.766Z,25.20
2018-05-11T12:52:36.218Z,24.00
2018-05-11T12:55:03.671Z,24.20
2018-05-11T12:57:31.134Z,24.10
2018-05-11T12:59:59.091Z,24.30
2018-05-11T13:02:26.703Z,23.70
2018-05-11T13:04:54.165Z,23.80
2018-05-11T13:07:22.441Z,23.80
2018-05-11T13:09:50.668Z,23.80
2018-05-11T13:12:18.139Z,23.70
2018-05-11T13:14:45.602Z,23.60
2018-05-11T13:17:13.070Z,24.70
2018-05-11T13:19:40.507Z,22.60
2018-05-11T13:22:07.987Z,21.90
2018-05-11T13:24:35.427Z,22.10
2018-05-11T13:27:02.894Z,22.50
2018-05-11T13:29:30.391Z,21.90
2018-05-11T13:31:57.847Z,22.60
2018-05-11T13:34:25.354Z,21.50
2018-05-11T13:36:52.856Z,21.40
2018-05-11T13:39:20.290Z,21.30
2018-05-11T13:41:48.518Z,21.90
2018-05-11T13:44:15.958Z,21.70
2018-05-11T13:46:43.420Z,21.70
2018-05-11T13:49:10.859Z,21.50
2018-05-11T13:51:40.232Z,21.20
2018-05-11T13:54:07.674Z,21.10
2018-05-11T13:56:35.145Z,21.20
2018-05-11T13:59:02.654Z,21.20
2018-05-11T14:01:30.149Z,20.80
2018-05-11T14:03:57.621Z,20.70
2018-05-11T14:06:25.073Z,21.10
2018-05-11T14:08:52.547Z,21.00
2018-05-11T14:11:20.754Z,20.40
2018-05-11T14:13:48.207Z,20.30
2018-05-11T14:16:15.675Z,20.20
2018-05-11T14:18:43.152Z,20.10
2018-05-11T14:21:10.594Z,20.20
2018-05-11T14:23:38.047Z,20.30
2018-05-11T14:26:05.482Z,20.40
2018-05-11T14:28:32.966Z,20.50
2018-05-11T14:31:00.479Z,20.00
2018-05-11T14:33:27.927Z,20.10
2018-05-11T14:35:55.395Z,20.30
2018-05-11T14:38:22.834Z,20.30
2018-05-11T14:40:50.278Z,20.40
2018-05-11T14:43:17.901Z,20.20
2018-05-11T14:45:45.326Z,19.90
2018-05-11T14:48:12.761Z,19.90
2018-05-11T14:50:40.208Z,20.20
2018-05-11T14:53:07.651Z,20.20
2018-05-11T14:55:35.102Z,20.00
2018-05-11T14:58:02.561Z,20.00
2018-05-11T15:00:30.036Z,20.10
2018-05-11T15:02:57.478Z,20.00
2018-05-11T15:05:24.936Z,20.40
2018-05-11T15:07:52.386Z,20.10
2018-05-11T15:10:20.720Z,19.70
2018-05-11T15:12:48.157Z,19.70
2018-05-11T15:15:15.611Z,19.70
2018-05-11T15:17:43.043Z,19.80
2018-05-11T15:20:10.529Z,20.10
2018-05-11T15:22:38.003Z,20.40
2018-05-11T15:25:05.507Z,20.00
2018-05-11T15:27:33.046Z,20.10
2018-05-11T15:30:00.477Z,20.10
2018-05-11T15:32:27.920Z,19.90
2018-05-11T15:34:56.162Z,19.70
2018-05-11T15:37:23.627Z,19.70
2018-05-11T15:39:51.071Z,20.00
2018-05-11T15:42:18.505Z,19.90
2018-05-11T15:44:45.959Z,20.40
2018-05-11T15:47:13.453Z,20.10
2018-05-11T15:49:40.886Z,20.10
2018-05-11T15:52:08.330Z,20.00
2018-05-11T15:54:35.992Z,19.90
2018-05-11T15:57:03.421Z,20.00
2018-05-11T15:59:30.975Z,20.20
2018-05-11T16:01:58.415Z,20.40
2018-05-11T16:04:25.856Z,20.60
2018-05-11T16:06:53.378Z,20.50
2018-05-11T16:09:20.825Z,20.80
2018-05-11T16:11:48.261Z,20.90
2018-05-11T16:14:15.713Z,20.90
2018-05-11T16:16:43.931Z,21.30
2018-05-11T16:19:11.366Z,20.80
2018-05-11T16:21:39.028Z,20.90
2018-05-11T16:24:06.484Z,20.80
2018-05-11T16:26:33.973Z,20.80
2018-05-11T16:29:01.414Z,21.00
2018-05-11T16:31:28.895Z,21.10
2018-05-11T16:33:56.338Z,21.10
2018-05-11T16:36:23.818Z,21.30
2018-05-11T16:38:51.259Z,21.70
2018-05-11T16:41:18.714Z,22.20
2018-05-11T16:43:46.147Z,23.30
2018-05-11T16:46:13.630Z,25.20
2018-05-11T16:48:41.091Z,27.00
2018-05-11T16:51:08.545Z,29.00
2018-05-11T16:53:35.982Z,31.20
2018-05-11T16:56:03.462Z,33.30
2018-05-11T16:58:30.956Z,35.50
2018-05-11T17:00:58.417Z,36.90
2018-05-11T17:03:25.868Z,38.90
2018-05-11T17:05:53.324Z,40.50
2018-05-11T17:08:21.543Z,42.80
2018-05-11T17:10:49.001Z,42.70
2018-05-11T17:13:16.446Z,43.80
2018-05-11T17:15:43.898Z,43.90
2018-05-11T17:18:11.353Z,45.00
2018-05-11T17:20:38.841Z,45.60
2018-05-11T17:23:06.271Z,46.20
2018-05-11T17:25:33.746Z,46.90
2018-05-11T17:28:01.287Z,47.30
2018-05-11T17:30:28.747Z,47.80
2018-05-11T17:32:56.198Z,48.70
2018-05-11T17:35:23.712Z,49.30
2018-05-11T17:37:51.147Z,49.80
2018-05-11T17:40:18.623Z,50.30
2018-05-11T17:42:46.078Z,50.70
2018-05-11T17:45:13.518Z,51.20
2018-05-11T17:47:40.969Z,51.80
2018-05-11T17:50:08.402Z,52.00
2018-05-11T17:52:35.844Z,52.20
2018-05-11T17:55:03.298Z,52.70
2018-05-11T17:57:30.722Z,53.40
2018-05-11T17:59:58.158Z,53.70
2018-05-11T18:02:25.907Z,53.80
2018-05-11T18:04:53.313Z,54.10
2018-05-11T18:07:21.546Z,55.00
2018-05-11T18:09:48.989Z,55.00
2018-05-11T18:12:16.490Z,56.10
2018-05-11T18:14:43.892Z,56.50
2018-05-11T18:17:11.365Z,56.80
2018-05-11T18:19:38.790Z,57.90
2018-05-11T18:22:06.238Z,58.40
2018-05-11T18:24:33.662Z,58.80
2018-05-11T18:27:01.118Z,59.00
2018-05-11T18:29:28.549Z,60.10
2018-05-11T18:31:56.110Z,59.60
2018-05-11T18:34:23.548Z,60.70
2018-05-11T18:36:50.978Z,61.60
2018-05-11T18:39:18.406Z,62.30
2018-05-11T18:41:46.073Z,64.60
2018-05-11T18:44:13.506Z,65.30
2018-05-11T18:46:40.976Z,65.00
2018-05-11T18:49:08.464Z,66.20
2018-05-11T18:51:35.971Z,66.70
2018-05-11T18:54:03.717Z,67.60
2018-05-11T18:56:30.939Z,67.00
2018-05-11T18:58:58.406Z,67.30
2018-05-11T19:01:25.874Z,69.40
2018-05-11T19:03:53.316Z,69.70
2018-05-11T19:06:20.790Z,70.20
2018-05-11T19:08:48.237Z,70.70
2018-05-11T19:11:15.688Z,69.90
2018-05-11T19:13:43.134Z,70.20
2018-05-11T19:16:10.614Z,71.20
2018-05-11T19:18:38.057Z,71.20
2018-05-11T19:21:05.503Z,70.60
2018-05-11T19:23:32.929Z,71.60
2018-05-11T19:26:00.403Z,72.40
2018-05-11T19:28:27.830Z,73.20
2018-05-11T19:30:55.282Z,73.60
2018-05-11T19:33:22.706Z,72.80
2018-05-11T19:35:50.947Z,73.50
2018-05-11T19:38:18.405Z,73.40
2018-05-11T19:40:45.844Z,75.00
2018-05-11T19:43:13.289Z,75.00
2018-05-11T19:45:40.721Z,76.90
2018-05-11T19:48:08.170Z,76.70
2018-05-11T19:50:35.607Z,77.50
2018-05-11T19:53:03.067Z,78.50
2018-05-11T19:55:30.498Z,78.90
2018-05-11T19:57:58.805Z,80.30
2018-05-11T20:00:27.014Z,80.20
2018-05-11T20:02:54.462Z,80.00
2018-05-11T20:05:21.912Z,80.90
2018-05-11T20:07:50.130Z,80.90
2018-05-11T20:10:17.588Z,80.70
2018-05-11T20:12:45.029Z,82.30
2018-05-11T20:15:12.471Z,82.00
2018-05-11T20:17:39.907Z,82.80
2018-05-11T20:20:07.342Z,82.70
2018-05-11T20:22:34.806Z,82.60
2018-05-11T20:25:02.282Z,83.30
2018-05-11T20:27:29.672Z,83.70
2018-05-11T20:29:57.095Z,84.70
2018-05-11T20:32:24.629Z,85.70
2018-05-11T20:34:52.755Z,86.10
2018-05-11T20:37:20.182Z,85.90
2018-05-11T20:39:47.631Z,85.90
2018-05-11T20:42:15.098Z,86.70
2018-05-11T20:44:42.547Z,88.40
2018-05-11T20:47:09.980Z,87.50
2018-05-11T20:49:37.444Z,87.60
2018-05-11T20:52:04.884Z,88.40
2018-05-11T20:54:32.327Z,88.80
2018-05-11T20:56:59.770Z,88.30
2018-05-11T20:59:27.224Z,89.80
2018-05-11T21:01:54.690Z,90.10
2018-05-11T21:04:22.150Z,90.10
2018-05-11T21:06:49.582Z,89.70
2018-05-11T21:09:17.039Z,90.00
2018-05-11T21:11:44.488Z,90.50
2018-05-11T21:14:11.930Z,90.50
2018-05-11T21:16:39.376Z,90.70
2018-05-11T21:19:07.613Z,90.80
2018-05-11T21:21:35.051Z,90.80
2018-05-11T21:24:02.479Z,90.90
2018-05-11T21:26:29.969Z,91.30
2018-05-11T21:28:57.426Z,91.30
2018-05-11T21:31:24.860Z,91.70
2018-05-11T21:33:52.322Z,91.70
2018-05-11T21:36:19.770Z,92.30
2018-05-11T21:38:47.233Z,92.90
2018-05-11T21:41:14.763Z,92.80
2018-05-11T21:43:42.158Z,93.00
2018-05-11T21:46:10.359Z,93.10
2018-05-11T21:48:37.810Z,93.40
2018-05-11T21:51:05.261Z,93.40
2018-05-11T21:53:32.687Z,93.80
2018-05-11T21:56:00.143Z,93.80
2018-05-11T21:58:28.366Z,94.40
2018-05-11T22:00:55.840Z,94.40
2018-05-11T22:03:23.266Z,94.60
2018-05-11T22:05:50.775Z,95.00
2018-05-11T22:08:18.164Z,95.10
2018-05-11T22:10:45.611Z,95.30
2018-05-11T22:13:13.060Z,95.30
2018-05-11T22:15:40.511Z,95.80
2018-05-11T22:18:08.702Z,96.10
2018-05-11T22:20:36.150Z,96.10
2018-05-11T22:23:03.577Z,96.30
2018-05-11T22:25:31.042Z,96.40
2018-05-11T22:27:58.507Z,96.50
2018-05-11T22:30:25.952Z,96.60
2018-05-11T22:32:53.396Z,96.80
2018-05-11T22:35:20.866Z,96.90
2018-05-11T22:37:48.307Z,97.00
2018-05-11T22:40:15.759Z,97.40
2018-05-11T22:42:43.311Z,97.40
2018-05-11T22:45:10.751Z,97.50
2018-05-11T22:47:38.186Z,97.60
2018-05-11T22:50:05.628Z,97.80
2018-05-11T22:52:33.079Z,98.20
2018-05-11T22:55:00.550Z,98.40
2018-05-11T22:57:27.999Z,98.40
2018-05-11T22:59:55.442Z,98.90
2018-05-11T23:02:22.890Z,99.10
2018-05-11T23:04:50.347Z,99.60
2018-05-11T23:07:17.778Z,99.90
2018-05-11T23:09:45.242Z,99.90
2018-05-11T23:12:12.702Z,99.90
2018-05-11T23:14:40.146Z,99.90
2018-05-11T23:17:07.574Z,99.90
2018-05-11T23:19:35.008Z,99.90
2018-05-11T23:22:02.458Z,99.90
2018-05-11T23:24:29.903Z,99.90
2018-05-11T23:26:57.365Z,99.90
2018-05-11T23:29:24.792Z,99.90
2018-05-11T23:31:52.241Z,99.90
2018-05-11T23:34:19.707Z,99.90
2018-05-11T23:36:47.166Z,99.90
2018-05-11T23:39:14.621Z,99.90
2018-05-11T23:41:42.066Z,99.90
2018-05-11T23:44:09.514Z,99.90
2018-05-11T23:46:36.946Z,99.90
2018-05-11T23:49:04.400Z,99.90
2018-05-11T23:51:32.641Z,99.90
2018-05-11T23:54:00.078Z,99.90
2018-05-11T23:56:27.533Z,99.90
2018-05-11T23:58:55.039Z,99.90
